createdAt,value
2023-04-02T00:04:02.209Z,2
2023-04-02T00:14:08.034Z,3
2023-04-02T00:24:13.977Z,4
2023-04-02T00:34:19.822Z,3
2023-04-02T00:44:25.685Z,3
2023-04-02T00:54:33.951Z,4
2023-04-02T01:04:42.186Z,2
2023-04-02T01:14:48.335Z,2
2023-04-02T01:24:54.967Z,3
2023-04-02T01:35:02.589Z,2
2023-04-02T01:45:06.592Z,2
2023-04-02T01:55:13.882Z,3
2023-04-02T02:05:20.673Z,2
2023-04-02T02:15:27.581Z,2
2023-04-02T02:25:33.624Z,2
2023-04-02T02:35:39.285Z,2
2023-04-02T02:45:45.120Z,2
2023-04-02T02:55:52.047Z,3
2023-04-02T03:05:58.789Z,4
2023-04-02T03:16:05.123Z,3
2023-04-02T03:26:12.297Z,4
2023-04-02T03:36:18.742Z,2
2023-04-02T03:46:23.971Z,3
2023-04-02T03:56:29.948Z,3
2023-04-02T04:06:37.310Z,3
2023-04-02T04:16:41.196Z,2
2023-04-02T04:26:46.175Z,3
2023-04-02T04:36:51.787Z,2
2023-04-02T04:46:58.980Z,1
2023-04-02T04:57:07.152Z,3
2023-04-02T05:07:13.563Z,2
2023-04-02T05:17:18.396Z,2
2023-04-02T05:27:25.073Z,3
2023-04-02T05:37:36.237Z,3
2023-04-02T05:47:40.387Z,5
2023-04-02T05:57:56.807Z,5
2023-04-02T06:08:21.529Z,3
2023-04-02T06:18:27.316Z,2
2023-04-02T06:28:33.214Z,4
2023-04-02T06:38:40.096Z,2
2023-04-02T06:48:46.690Z,3
2023-04-02T06:58:52.353Z,4
2023-04-02T07:08:59.863Z,9
2023-04-02T07:19:06.479Z,5
2023-04-02T07:29:14.172Z,3
2023-04-02T07:39:20.609Z,3
2023-04-02T07:49:26.641Z,5
2023-04-02T07:59:32.126Z,4
2023-04-02T08:09:38.402Z,2
2023-04-02T08:19:54.574Z,3
2023-04-02T08:29:52.384Z,3
2023-04-02T08:39:58.978Z,3
2023-04-02T08:50:05.072Z,3
2023-04-02T09:00:11.684Z,3
2023-04-02T09:10:16.224Z,9
2023-04-02T09:20:23.093Z,2
2023-04-02T09:30:29.603Z,4
2023-04-02T09:40:36.777Z,4
2023-04-02T09:50:43.136Z,2
2023-04-02T10:01:13.312Z,3
2023-04-02T10:11:07.874Z,4
2023-04-02T10:21:32.339Z,2
2023-04-02T10:31:26.533Z,4
2023-04-02T10:41:32.985Z,3
2023-04-02T10:51:38.561Z,3
2023-04-02T11:01:45.895Z,8
2023-04-02T11:11:51.595Z,1
2023-04-02T11:21:59.834Z,2
2023-04-02T11:32:04.631Z,2
2023-04-02T11:42:10.901Z,2
2023-04-02T11:52:18.107Z,3
2023-04-02T12:02:25.302Z,4
2023-04-02T12:12:33.658Z,4
2023-04-02T12:22:36.319Z,2
2023-04-02T12:32:44.109Z,3
2023-04-02T12:42:50.507Z,5
2023-04-02T12:52:55.057Z,3
2023-04-02T13:03:00.037Z,4
2023-04-02T13:13:07.749Z,3
2023-04-02T13:23:13.935Z,3
2023-04-02T13:33:22.345Z,3
2023-04-02T13:43:28.113Z,2
2023-04-02T13:53:33.153Z,2
2023-04-02T14:03:40.624Z,2
2023-04-02T14:13:47.322Z,3
2023-04-02T14:23:54.298Z,3
2023-04-02T14:33:59.836Z,1
2023-04-02T14:44:06.917Z,3
2023-04-02T14:54:14.207Z,1
2023-04-02T15:04:20.315Z,3
2023-04-02T15:14:25.761Z,2
2023-04-02T15:24:31.363Z,4
2023-04-02T15:34:36.127Z,4
2023-04-02T15:44:42.389Z,3
2023-04-02T15:54:49.299Z,4
2023-04-02T16:04:57.987Z,2
2023-04-02T16:15:01.919Z,4
2023-04-02T16:25:07.541Z,4
2023-04-02T16:45:19.145Z,3
2023-04-02T16:55:25.895Z,3
2023-04-02T17:05:33.154Z,6
2023-04-02T17:15:51.125Z,5
2023-04-02T17:25:44.321Z,4
2023-04-02T17:35:51.202Z,3
2023-04-02T17:45:58.828Z,4
2023-04-02T17:56:06.361Z,5
2023-04-02T18:06:11.686Z,5
2023-04-02T18:16:19.284Z,3
2023-04-02T18:26:26.704Z,4
2023-04-02T18:36:34.227Z,8
2023-04-02T18:46:41.465Z,5
2023-04-02T18:56:47.644Z,4
2023-04-02T19:06:52.967Z,18
2023-04-02T19:17:01.166Z,5
2023-04-02T19:27:05.608Z,5
2023-04-02T19:37:14.812Z,4
2023-04-02T19:47:19.706Z,7
2023-04-02T19:57:26.077Z,10
2023-04-02T20:07:34.603Z,7
2023-04-02T20:17:42.264Z,10
2023-04-02T20:27:49.122Z,10
2023-04-02T20:37:54.872Z,12
2023-04-02T20:48:02.207Z,12
2023-04-02T20:58:08.181Z,13
2023-04-02T21:08:14.636Z,11
2023-04-02T21:18:22.077Z,13
2023-04-02T21:28:27.201Z,11
2023-04-02T21:38:33.420Z,10
2023-04-02T21:48:40.235Z,9
2023-04-02T21:58:46.082Z,9
2023-04-02T22:08:52.571Z,11
2023-04-02T22:18:58.825Z,14
2023-04-02T22:29:04.218Z,13
2023-04-02T22:39:11.907Z,13
2023-04-02T22:49:19.456Z,11
2023-04-02T22:59:25.394Z,14
2023-04-02T23:09:32.336Z,12
2023-04-02T23:19:38.547Z,15
2023-04-02T23:29:44.000Z,13
2023-04-02T23:39:51.211Z,13
2023-04-02T23:49:57.094Z,14
